Home > Products > Valid Products > MTR

000
SAUS45 KLKN 162255
MTRP68
METAR KP68 162253Z AUTO 16007KT 31/01 A3006 RMK AO1 SLP091 T03110006





000
SAUS45 KLKN 162155
MTRP68
METAR KP68 162153Z AUTO 18010G16KT 31/00 A3008 RMK AO1 SLP096
T03110000





000
SAUS45 KLKN 162055
MTRP68
METAR KP68 162053Z AUTO 17012G17KT 31/00 A3010 RMK AO1 SLP102
T03110000 58018





000
SAUS45 KLKN 161954
MTRP68
METAR KP68 161953Z AUTO 22011G21KT 31/M01 A3013 RMK AO1 SLP111
T03111006





000
SAUS45 KLKN 161855
MTRP68
METAR KP68 161853Z AUTO 19014G21KT 160V240 29/01 A3014 RMK AO1
SLP112 T02940011





000
SAUS45 KLKN 161755
MTRP68
METAR KP68 161753Z AUTO 00000KT 28/02 A3016 RMK AO1 SLP123 T02780022
10283 20106 58008





000
SAUS45 KLKN 161655
MTRP68
METAR KP68 161653Z AUTO 00000KT 26/02 A3018 RMK AO1 SLP132 T02560022





000
SAUS45 KLKN 161554
MTRP68
METAR KP68 161553Z AUTO 05003KT 21/03 A3019 RMK AO1 SLP144 T02110028





000
SAUS45 KLKN 161454
MTRP68
METAR KP68 161453Z AUTO 30003KT 17/01 A3019 RMK AO1 SLP138 T01720011
53008





000
SAUS45 KLKN 161354
MTRP68
METAR KP68 161353Z AUTO 22007KT 12/01 A3018 RMK AO1 SLP140 T01220006





000
SAUS45 KLKN 161255
MTRP68
METAR KP68 161253Z AUTO 19007KT 12/00 A3017 RMK AO1 SLP136 T01220000





000
SAUS45 KLKN 161155
MTRP68
METAR KP68 161153Z AUTO 19004KT 13/01 A3016 RMK AO1 SLP129 T01280006
10194 20100 58001





000
SAUS45 KLKN 161054
MTRP68
METAR KP68 161053Z AUTO 17007KT 12/M01 A3017 RMK AO1 SLP133
T01221006





000
SAUS45 KLKN 160954
MTRP68
METAR KP68 160953Z AUTO 15005KT 13/02 A3017 RMK AO1 SLP132 T01280017





000
SAUS45 KLKN 160855
MTRP68
METAR KP68 160853Z AUTO 21005KT 14/01 A3017 RMK AO1 SLP130 T01390011
50001





000
SAUS45 KLKN 160754
MTRP68
METAR KP68 160753Z AUTO 00000KT 14/00 A3017 RMK AO1 SLP129 T01440000
403060083





000
SAUS45 KLKN 160654
MTRP68
METAR KP68 160653Z AUTO 17008KT 19/01 A3017 RMK AO1 SLP122 T01940006





000
SAUS45 KLKN 160554
MTRP68
METAR KP68 160553Z AUTO 18006KT 19/01 A3016 RMK AO1 SLP124 T01890006
10300 20183 51009





000
SAUS45 KLKN 160455
MTRP68
METAR KP68 160453Z AUTO 18006KT 18/01 A3015 RMK AO1 SLP126 T01830006





000
SAUS45 KLKN 160355
MTRP68
METAR KP68 160353Z AUTO 21003KT 19/01 A3015 RMK AO1 SLP130 T01890011





000
SAUS45 KLKN 160255
MTRP68
METAR KP68 160253Z AUTO 33003KT 26/01 A3013 RMK AO1 SLP122 T02560006
53003





000
SAUS45 KLKN 160155
MTRP68
METAR KP68 160153Z AUTO 25003KT 28/M01 A3011 RMK AO1 PK WND
17027/0129 SLP120 T02781011





000
SAUS45 KLKN 160055
MTRP68
METAR KP68 160053Z AUTO 22005KT 28/01 A3012 RMK AO1 SLP124 T02780006





000
SAUS45 KLKN 152355
MTRP68
METAR KP68 152353Z AUTO 13007KT 29/M01 A3012 RMK AO1 SLP118
T02941011 10306 20250 56013





000
SAUS45 KLKN 152254
MTRP68
METAR KP68 152253Z AUTO VRB04KT 29/M02 A3013 RMK AO1 SLP125
T02891017





000
SAUS45 KLKN 152157 COR
MTRP68
METAR KP68 152153Z AUTO 00000KT 29/M02 A3014 RMK AO1 SLP122
T02941017





000
SAUS45 KLKN 152156 COR
MTRP68
METAR KP68 152153Z AUTO 00000KT 29/M02 A3014 RMK AO1 SLP122
T02941017





000
SAUS45 KLKN 152054
MTRP68
METAR KP68 152053Z AUTO VRB03KT 29/M01 A3016 RMK AO1 SLP134
T02941011 58015





000
SAUS45 KLKN 151954
MTRP68
METAR KP68 151953Z AUTO VRB03KT 29/M01 A3019 RMK AO1 SLP139
T02941011





000
SAUS45 KLKN 151854
MTRP68
METAR KP68 151853Z AUTO 06005KT 28/M01 A3020 RMK AO1 SLP151
T02781011





000
SAUS45 KLKN 151754
MTRP68
METAR KP68 151753Z AUTO 03003KT 26/M01 A3022 RMK AO1 SLP156
T02611006 10261 20089 58001





000
SAUS45 KLKN 151655
MTRP68
METAR KP68 151653Z AUTO 00000KT 23/M01 A3022 RMK AO1 SLP159
T02331011





000
SAUS45 KLKN 151554
MTRP68
METAR KP68 151553Z AUTO VRB03KT 19/M02 A3022 RMK AO1 SLP160
T01941022





000
SAUS45 KLKN 151454
MTRP68
METAR KP68 151453Z AUTO 18004KT 14/M03 A3022 RMK AO1 SLP162
T01391028 52010





000
SAUS45 KLKN 151354
MTRP68
METAR KP68 151353Z AUTO 21007KT 10/M03 A3021 RMK AO1 SLP159
T01001033





000
SAUS45 KLKN 151254
MTRP68
METAR KP68 151253Z AUTO 20006KT 09/M03 A3019 RMK AO1 SLP148
T00891033





000
SAUS45 KLKN 151155
MTRP68
METAR KP68 151153Z AUTO 19007KT 10/M03 A3018 RMK AO1 SLP140
T01001033 10133 20083 53007





000
SAUS45 KLKN 151054
MTRP68
METAR KP68 151053Z AUTO 17004KT 10/M02 A3017 RMK AO1 SLP136
T01001022





000
SAUS45 KLKN 150954
MTRP68
METAR KP68 150953Z AUTO 19008KT 13/M04 A3017 RMK AO1 SLP132
T01281039





000
SAUS45 KLKN 150855
MTRP68
METAR KP68 150853Z AUTO 19004KT 10/M02 A3016 RMK AO1 SLP136
T01001022 51006





000
SAUS45 KLKN 150755
MTRP68
METAR KP68 150753Z AUTO 18005KT 11/M04 A3016 RMK AO1 SLP131
T01111039 403000072





000
SAUS45 KLKN 150655
MTRP68
METAR KP68 150653Z AUTO 00000KT 11/M04 A3016 RMK AO1 SLP134
T01111039





000
SAUS45 KLKN 150554
MTRP68
METAR KP68 150553Z AUTO 15005KT 12/M02 A3014 RMK AO1 SLP130
T01171022 10300 20117 51012





000
SAUS45 KLKN 150454
MTRP68
METAR KP68 150453Z AUTO 24007KT 13/M02 A3013 RMK AO1 SLP134
T01281017





000
SAUS45 KLKN 150354
MTRP68
METAR KP68 150353Z AUTO 08005KT 17/M01 A3012 RMK AO1 SLP128
T01721011





000
SAUS45 KLKN 150254
MTRP68
METAR KP68 150253Z AUTO 33005KT 21/M02 A3009 RMK AO1 SLP120
T02111017 53009





000
SAUS45 KLKN 150154
MTRP68
METAR KP68 150153Z AUTO 31007KT 25/M06 A3008 RMK AO1 SLP116
T02501056





000
SAUS45 KLKN 150054
MTRP68
METAR KP68 150053Z AUTO 26009KT 28/M05 A3007 RMK AO1 SLP104
T02831050





000
SAUS45 KLKN 142355
MTRP68
METAR KP68 142353Z AUTO 30/M04 A3006 RMK AO1 SLP098 T03001044 10300
20250 56006





000
SAUS45 KLKN 142255
MTRP68
METAR KP68 142253Z AUTO 29008KT 29/M03 A3006 RMK AO1 SLP099
T02941028





000
SAUS45 KLKN 142155
MTRP68
METAR KP68 142153Z AUTO 00000KT 28/M02 A3007 RMK AO1 SLP097
T02831022





000
SAUS45 KLKN 142055
MTRP68
METAR KP68 142053Z AUTO VRB03KT 28/M02 A3008 RMK AO1 SLP103
T02781022 58016





000
SAUS45 KLKN 141954
MTRP68
METAR KP68 141953Z AUTO VRB04KT 29/M02 A3010 RMK AO1 SLP108
T02891017





000
SAUS45 KLKN 141854
MTRP68
METAR KP68 141853Z AUTO 34003KT 27/M02 A3012 RMK AO1 SLP122
T02721022





000
SAUS45 KLKN 141755
MTRP68
METAR KP68 141753Z AUTO 03005KT 25/M03 A3014 RMK AO1 SLP123
T02501028 10261 20072 58003





000
SAUS45 KLKN 141655
MTRP68
METAR KP68 141653Z AUTO 00000KT 22/M04 A3015 RMK AO1 SLP130
T02171039





000
SAUS45 KLKN 141554
MTRP68
METAR KP68 141553Z AUTO 18004KT 17/M04 A3015 RMK AO1 SLP134
T01721039





000
SAUS45 KLKN 141454
MTRP68
METAR KP68 141453Z AUTO 00000KT 13/M04 A3015 RMK AO1 SLP136
T01281039 53013





000
SAUS45 KLKN 141354
MTRP68
METAR KP68 141353Z AUTO 00000KT 08/M04 A3013 RMK AO1 SLP138
T00781044





000
SAUS45 KLKN 141255
MTRP68
METAR KP68 141253Z AUTO 20007KT 09/M04 A3012 RMK AO1 SLP119
T00941039





000
SAUS45 KLKN 141154
MTRP68
METAR KP68 141153Z AUTO 18005KT 10/M04 A3011 RMK AO1 SLP116
T01001039 10156 20089 51004





000
SAUS45 KLKN 141054
MTRP68
METAR KP68 141053Z AUTO 00000KT 10/M03 A3010 RMK AO1 SLP114
T01001033





000
SAUS45 KLKN 140954
MTRP68
METAR KP68 140953Z AUTO 20008KT 13/M04 A3010 RMK AO1 SLP107
T01331044





000
SAUS45 KLKN 140854
MTRP68
METAR KP68 140853Z AUTO 19008KT 13/M04 A3009 RMK AO1 SLP106
T01281039 50001





000
SAUS45 KLKN 140754
MTRP68
METAR KP68 140753Z AUTO 20006KT 13/M04 A3009 RMK AO1 SLP106
T01281044 403060067





000
SAUS45 KLKN 140654
MTRP68
METAR KP68 140653Z AUTO 24004KT 11/M03 A3009 RMK AO1 SLP111
T01111028





000
SAUS45 KLKN 140555
MTRP68
METAR KP68 140553Z AUTO 11003KT 16/M04 A3009 RMK AO1 SLP104
T01561044 10294 20156 53013





000
SAUS45 KLKN 140455
MTRP68
METAR KP68 140453Z AUTO 33007KT 18/M05 A3007 RMK AO1 SLP101
T01831050





000
SAUS45 KLKN 140355
MTRP68
METAR KP68 140353Z AUTO 00000KT 20/M04 A3005 RMK AO1 SLP097
T02001044





000
SAUS45 KLKN 140255
MTRP68
METAR KP68 140253Z AUTO 19008KT 24/M04 A3004 RMK AO1 SLP097
T02391044 55001





000
SAUS45 KLKN 140155
MTRP68
METAR KP68 140153Z AUTO 14007KT 24/M03 A3003 RMK AO1 SLP102
T02391028





000
SAUS45 KLKN 140055
MTRP68
METAR KP68 140053Z AUTO 03004KT 29/M06 A3004 RMK AO1 SLP094
T02891061





000
SAUS45 KLKN 132355
MTRP68
METAR KP68 132353Z AUTO 08005KT 28/M02 A3005 RMK AO1 SLP096
T02831022 10306 20256 56011





    US Dept of Commerce
    National Oceanic and Atmospheric Administration
    National Weather Service
    1325 East West Highway
    Silver Spring, MD 20910
    Page Author: NWS Internet Services Team
Disclaimer
Information Quality
Credits
Glossary
Privacy Policy
Freedom of Information Act (FOIA)
About Us
Career Opportunities